createdAt,value
2023-03-14T00:01:50.549Z,98949.75
2023-03-14T00:04:19.399Z,98952.48
2023-03-14T00:06:48.202Z,98944.63
2023-03-14T00:09:18.343Z,98946.09
2023-03-14T00:11:47.643Z,98951.48
2023-03-14T00:14:17.832Z,98947.84
2023-03-14T00:16:47.343Z,98957.23
2023-03-14T00:19:16.077Z,98956.70
2023-03-14T00:21:44.795Z,98952.20
2023-03-14T00:24:13.533Z,98950.09
2023-03-14T00:26:42.217Z,98945.70
2023-03-14T00:29:10.992Z,98942.27
2023-03-14T00:31:40.693Z,98939.04
2023-03-14T00:34:09.487Z,98934.58
2023-03-14T00:36:38.310Z,98929.27
2023-03-14T00:39:07.097Z,98918.37
2023-03-14T00:41:35.780Z,98925.52
2023-03-14T00:44:04.612Z,98926.24
2023-03-14T00:46:33.455Z,98923.36
2023-03-14T00:49:02.179Z,98917.13
2023-03-14T00:51:30.951Z,98918.77
2023-03-14T00:54:00.795Z,98910.50
2023-03-14T00:56:29.490Z,98910.55
2023-03-14T00:58:58.596Z,98905.05
2023-03-14T01:01:27.364Z,98905.98
2023-03-14T01:03:57.014Z,98901.66
2023-03-14T01:06:28.007Z,98902.80
2023-03-14T01:08:58.040Z,98901.29
2023-03-14T01:11:30.177Z,98894.56
2023-03-14T01:13:59.503Z,98895.00
2023-03-14T01:16:30.669Z,98895.40
2023-03-14T01:18:59.452Z,98888.99
2023-03-14T01:21:31.328Z,98887.02
2023-03-14T01:24:02.373Z,98877.07
2023-03-14T01:26:34.751Z,98870.05
2023-03-14T01:29:05.134Z,98861.40
2023-03-14T01:31:33.938Z,98855.06
2023-03-14T01:34:02.806Z,98847.86
2023-03-14T01:36:31.949Z,98827.23
2023-03-14T01:39:00.828Z,98814.48
2023-03-14T01:41:29.690Z,98788.33
2023-03-14T01:43:58.849Z,98765.70
2023-03-14T01:46:47.923Z,98740.17
2023-03-14T01:49:25.841Z,98715.56
2023-03-14T01:52:01.811Z,98699.67
2023-03-14T01:54:39.513Z,98698.80
2023-03-14T01:57:23.033Z,98730.31
2023-03-14T02:00:17.711Z,98746.73
2023-03-14T02:03:17.586Z,98759.66
2023-03-14T02:05:47.989Z,98777.23
2023-03-14T02:08:20.644Z,98782.89
2023-03-14T02:10:51.062Z,98787.86
2023-03-14T02:13:22.442Z,98779.74
2023-03-14T02:15:51.663Z,98777.22
2023-03-14T02:18:20.633Z,98769.95
2023-03-14T02:21:04.164Z,98761.88
2023-03-14T02:24:05.156Z,98761.58
2023-03-14T02:27:02.010Z,98765.47
2023-03-14T02:29:34.421Z,98763.20
2023-03-14T02:32:03.710Z,98762.92
2023-03-14T02:34:35.698Z,98762.41
2023-03-14T02:37:05.959Z,98765.29
2023-03-14T02:39:40.085Z,98769.05
2023-03-14T02:42:08.871Z,98767.25
2023-03-14T02:44:55.993Z,98764.46
2023-03-14T02:47:30.284Z,98765.05
2023-03-14T02:50:17.009Z,98758.31
2023-03-14T02:52:45.774Z,98743.33
2023-03-14T02:55:14.735Z,98743.13
2023-03-14T02:57:43.410Z,98739.63
2023-03-14T03:00:12.473Z,98738.73
2023-03-14T03:02:41.522Z,98739.15
2023-03-14T03:05:10.348Z,98739.56
2023-03-14T03:07:39.017Z,98738.19
2023-03-14T03:10:08.223Z,98753.50
2023-03-14T03:12:37.107Z,98765.42
2023-03-14T03:15:06.398Z,98760.46
2023-03-14T03:17:35.217Z,98759.07
2023-03-14T03:20:05.935Z,98759.20
2023-03-14T03:22:34.644Z,98759.23
2023-03-14T03:25:05.776Z,98753.64
2023-03-14T03:27:37.044Z,98754.46
2023-03-14T03:30:07.635Z,98753.20
2023-03-14T03:32:36.698Z,98759.59
2023-03-14T03:35:06.334Z,98749.55
2023-03-14T03:37:36.049Z,98740.55
2023-03-14T03:40:07.465Z,98738.02
2023-03-14T03:42:37.032Z,98733.69
2023-03-14T03:45:06.349Z,98728.02
2023-03-14T03:47:35.076Z,98724.36
2023-03-14T03:50:04.098Z,98710.45
2023-03-14T03:52:32.840Z,98706.99
2023-03-14T03:55:01.546Z,98707.58
2023-03-14T03:57:30.314Z,98707.02
2023-03-14T03:59:59.052Z,98699.29
2023-03-14T04:02:27.819Z,98692.90
2023-03-14T04:04:56.758Z,98688.89
2023-03-14T04:07:25.618Z,98684.27
2023-03-14T04:09:54.530Z,98675.90
2023-03-14T04:12:23.356Z,98680.48
2023-03-14T04:14:52.087Z,98677.93
2023-03-14T04:17:21.768Z,98675.92
2023-03-14T04:19:54.395Z,98687.02
2023-03-14T04:22:23.117Z,98705.42
2023-03-14T04:24:52.051Z,98701.05
2023-03-14T04:27:20.820Z,98701.21
2023-03-14T04:29:49.515Z,98685.89
2023-03-14T04:32:18.246Z,98677.98
2023-03-14T04:34:47.253Z,98671.96
2023-03-14T04:37:16.118Z,98677.19
2023-03-14T04:39:44.783Z,98662.55
2023-03-14T04:42:13.613Z,98651.11
2023-03-14T04:44:44.350Z,98644.85
2023-03-14T04:47:13.184Z,98652.16
2023-03-14T04:49:41.930Z,98660.61
2023-03-14T04:52:11.027Z,98664.55
2023-03-14T04:54:39.828Z,98659.14
2023-03-14T04:57:08.651Z,98660.64
2023-03-14T04:59:37.427Z,98656.98
2023-03-14T05:02:06.242Z,98659.95
2023-03-14T05:04:35.121Z,98666.08
2023-03-14T05:07:03.932Z,98672.98
2023-03-14T05:09:32.699Z,98661.54
2023-03-14T05:12:01.589Z,98656.63
2023-03-14T05:14:30.305Z,98664.67
2023-03-14T05:16:59.025Z,98670.70
2023-03-14T05:19:27.739Z,98673.48
2023-03-14T05:21:56.668Z,98672.79
2023-03-14T05:24:26.322Z,98670.05
2023-03-14T05:26:55.029Z,98663.15
2023-03-14T05:29:23.693Z,98663.00
2023-03-14T05:31:52.501Z,98661.41
2023-03-14T05:34:21.244Z,98666.33
2023-03-14T05:36:49.879Z,98675.95
2023-03-14T05:39:19.062Z,98674.12
2023-03-14T05:41:47.740Z,98670.52
2023-03-14T05:44:17.781Z,98659.95
2023-03-14T05:46:46.553Z,98655.27
2023-03-14T05:49:15.442Z,98648.41
2023-03-14T05:51:44.253Z,98648.05
2023-03-14T05:54:12.996Z,98655.33
2023-03-14T05:56:41.657Z,98654.13
2023-03-14T05:59:10.977Z,98654.77
2023-03-14T06:01:39.785Z,98662.13
2023-03-14T06:04:08.531Z,98667.30
2023-03-14T06:06:37.268Z,98666.79
2023-03-14T06:09:06.024Z,98668.69
2023-03-14T06:11:34.892Z,98675.03
2023-03-14T06:14:03.654Z,98677.64
2023-03-14T06:16:33.261Z,98678.87
2023-03-14T06:19:02.011Z,98677.52
2023-03-14T06:21:31.154Z,98679.66
2023-03-14T06:23:59.920Z,98683.83
2023-03-14T06:26:29.528Z,98687.13
2023-03-14T06:28:58.205Z,98677.94
2023-03-14T06:31:26.900Z,98671.48
2023-03-14T06:33:55.635Z,98672.20
2023-03-14T06:36:24.704Z,98670.33
2023-03-14T06:38:53.517Z,98661.53
2023-03-14T06:41:24.777Z,98663.88
2023-03-14T06:43:55.417Z,98666.84
2023-03-14T06:46:25.413Z,98675.50
2023-03-14T06:48:55.181Z,98674.27
2023-03-14T06:51:24.395Z,98681.16
2023-03-14T06:53:53.093Z,98677.83
2023-03-14T06:56:24.751Z,98661.60
2023-03-14T06:58:53.510Z,98658.59
2023-03-14T07:01:27.031Z,98653.98
2023-03-14T07:03:55.931Z,98652.84
2023-03-14T07:06:26.089Z,98645.79
2023-03-14T07:08:54.976Z,98638.97
2023-03-14T07:11:24.251Z,98640.61
2023-03-14T07:13:53.264Z,98645.09
2023-03-14T07:16:22.145Z,98637.25
2023-03-14T07:18:51.015Z,98643.01
2023-03-14T07:21:19.716Z,98641.13
2023-03-14T07:23:48.494Z,98639.05
2023-03-14T07:26:17.429Z,98639.27
2023-03-14T07:28:46.216Z,98627.73
2023-03-14T07:31:15.049Z,98627.58
2023-03-14T07:33:43.862Z,98627.86
2023-03-14T07:36:12.805Z,98624.09
2023-03-14T07:38:41.726Z,98624.35
2023-03-14T07:41:10.735Z,98637.56
2023-03-14T07:43:39.527Z,98638.81
2023-03-14T07:46:08.797Z,98642.95
2023-03-14T07:48:37.605Z,98650.61
2023-03-14T07:51:06.672Z,98656.56
2023-03-14T07:53:35.811Z,98650.55
2023-03-14T07:56:04.743Z,98648.44
2023-03-14T07:58:33.621Z,98644.96
2023-03-14T08:01:02.371Z,98643.95
2023-03-14T08:03:31.615Z,98640.80
2023-03-14T08:06:00.509Z,98634.07
2023-03-14T08:08:29.301Z,98642.81
2023-03-14T08:11:09.573Z,98652.12
2023-03-14T08:13:38.944Z,98655.10
2023-03-14T08:16:08.118Z,98663.38
2023-03-14T08:18:36.847Z,98676.91
2023-03-14T08:21:05.802Z,98676.98
2023-03-14T08:23:34.528Z,98673.48
2023-03-14T08:26:03.446Z,98671.39
2023-03-14T08:28:34.185Z,98667.13
2023-03-14T08:31:03.785Z,98662.44
2023-03-14T08:33:35.070Z,98669.29
2023-03-14T08:36:04.095Z,98671.39
2023-03-14T08:38:32.842Z,98664.60
2023-03-14T08:41:03.224Z,98667.45
2023-03-14T08:43:32.098Z,98658.95
2023-03-14T08:46:02.255Z,98652.83
2023-03-14T08:48:31.551Z,98649.70
2023-03-14T08:51:13.603Z,98651.23
2023-03-14T08:53:42.802Z,98657.65
2023-03-14T08:56:11.777Z,98661.32
2023-03-14T08:58:40.576Z,98660.14
2023-03-14T09:01:11.318Z,98673.18
2023-03-14T09:03:40.282Z,98671.30
2023-03-14T09:06:10.959Z,98673.70
2023-03-14T09:08:39.941Z,98665.38
2023-03-14T09:11:09.884Z,98664.04
2023-03-14T09:13:38.991Z,98653.71
2023-03-14T09:16:08.809Z,98660.63
2023-03-14T09:18:37.840Z,98664.79
2023-03-14T09:21:06.964Z,98666.44
2023-03-14T09:23:35.691Z,98666.81
2023-03-14T09:26:04.644Z,98670.79
2023-03-14T09:28:33.409Z,98671.81
2023-03-14T09:31:10.017Z,98673.18
2023-03-14T09:33:39.520Z,98679.06
2023-03-14T09:36:08.896Z,98679.67
2023-03-14T09:38:37.945Z,98671.67
2023-03-14T09:41:17.041Z,98672.48
2023-03-14T09:43:47.894Z,98670.86
2023-03-14T09:46:16.857Z,98666.97
2023-03-14T09:48:46.697Z,98663.12
2023-03-14T09:51:18.770Z,98671.70
2023-03-14T09:53:49.993Z,98671.64
2023-03-14T09:56:28.928Z,98665.74
2023-03-14T09:59:05.600Z,98668.92
2023-03-14T10:01:36.532Z,98674.38
2023-03-14T10:04:11.972Z,98674.21
2023-03-14T10:06:40.799Z,98668.59
2023-03-14T10:09:20.825Z,98668.04
2023-03-14T10:11:49.510Z,98666.25
2023-03-14T10:14:34.169Z,98660.95
2023-03-14T10:17:14.491Z,98665.81
2023-03-14T10:19:57.358Z,98664.67
2023-03-14T10:22:31.114Z,98663.27
2023-03-14T10:25:06.178Z,98667.29
2023-03-14T10:27:36.901Z,98668.28
2023-03-14T10:30:08.764Z,98667.42
2023-03-14T10:32:39.690Z,98663.13
2023-03-14T10:35:20.307Z,98661.39
2023-03-14T10:37:52.467Z,98666.90
2023-03-14T10:40:28.423Z,98670.20
2023-03-14T10:42:59.460Z,98667.55
2023-03-14T10:45:44.764Z,98672.50
2023-03-14T10:48:25.612Z,98675.25
2023-03-14T10:50:58.209Z,98673.02
2023-03-14T10:53:27.918Z,98665.43
2023-03-14T10:55:56.962Z,98664.50
2023-03-14T10:58:28.256Z,98667.92
2023-03-14T11:01:08.311Z,98674.80
2023-03-14T11:03:39.510Z,98674.91
2023-03-14T11:06:19.424Z,98672.16
2023-03-14T11:09:05.374Z,98674.00
2023-03-14T11:11:34.616Z,98672.72
2023-03-14T11:14:19.501Z,98669.58
2023-03-14T11:16:55.217Z,98667.92
2023-03-14T11:19:52.673Z,98666.27
2023-03-14T11:22:31.065Z,98661.77
2023-03-14T11:25:22.719Z,98660.76
2023-03-14T11:28:01.619Z,98662.19
2023-03-14T11:30:31.746Z,98661.55
2023-03-14T11:33:12.545Z,98662.98
2023-03-14T11:35:59.404Z,98658.40
2023-03-14T11:38:47.262Z,98650.67
2023-03-14T11:41:30.594Z,98652.83
2023-03-14T11:44:02.438Z,98655.87
2023-03-14T11:46:42.440Z,98654.84
2023-03-14T11:49:20.261Z,98650.83
2023-03-14T11:51:59.394Z,98642.45
2023-03-14T11:54:44.012Z,98634.34
2023-03-14T11:57:16.142Z,98628.42
2023-03-14T12:00:15.289Z,98624.91
2023-03-14T12:03:10.358Z,98622.36
2023-03-14T12:05:56.562Z,98628.82
2023-03-14T12:08:44.394Z,98632.21
2023-03-14T12:11:18.983Z,98629.78
2023-03-14T12:13:50.914Z,98627.92
2023-03-14T12:16:33.716Z,98626.72
2023-03-14T12:19:22.727Z,98630.15
2023-03-14T12:21:56.149Z,98621.09
2023-03-14T12:24:33.432Z,98624.94
2023-03-14T12:27:05.020Z,98618.42
2023-03-14T12:29:33.778Z,98614.94
2023-03-14T12:32:02.585Z,98620.73
2023-03-14T12:34:43.312Z,98614.29
2023-03-14T12:37:24.312Z,98619.83
2023-03-14T12:40:18.684Z,98619.59
2023-03-14T12:43:06.341Z,98616.73
2023-03-14T12:45:38.339Z,98619.45
2023-03-14T12:48:25.890Z,98617.36
2023-03-14T12:50:57.489Z,98617.15
2023-03-14T12:53:56.386Z,98621.15
2023-03-14T12:56:47.614Z,98616.73
2023-03-14T12:59:30.221Z,98620.25
2023-03-14T13:02:04.334Z,98617.94
2023-03-14T13:04:48.383Z,98615.39
2023-03-14T13:07:40.758Z,98619.27
2023-03-14T13:12:56.426Z,98625.23
2023-03-14T13:15:33.018Z,98627.17
2023-03-14T13:18:28.132Z,98626.33
2023-03-14T13:21:04.065Z,98626.16
2023-03-14T13:23:35.275Z,98627.90
2023-03-14T13:26:04.486Z,98627.17
2023-03-14T13:28:35.941Z,98623.95
2023-03-14T13:31:07.246Z,98621.24
2023-03-14T13:33:36.015Z,98619.58
2023-03-14T13:36:06.651Z,98621.40
2023-03-14T13:38:37.227Z,98623.80
2023-03-14T13:41:08.103Z,98626.55
2023-03-14T13:43:42.194Z,98626.00
2023-03-14T13:46:17.960Z,98624.91
2023-03-14T13:48:59.892Z,98624.09
2023-03-14T13:51:32.623Z,98618.42
2023-03-14T13:54:04.025Z,98616.69
2023-03-14T13:56:34.185Z,98619.80
2023-03-14T13:59:02.868Z,98619.56
2023-03-14T14:01:38.795Z,98620.41
2023-03-14T14:04:16.820Z,98624.44
2023-03-14T14:06:50.589Z,98622.63
2023-03-14T14:09:27.790Z,98620.14
2023-03-14T14:12:17.090Z,98616.22
2023-03-14T14:14:53.232Z,98606.30
2023-03-14T14:17:32.250Z,98611.20
2023-03-14T14:20:05.315Z,98607.20
2023-03-14T14:22:34.799Z,98608.89
2023-03-14T14:25:05.341Z,98614.08
2023-03-14T14:27:40.141Z,98615.27
2023-03-14T14:30:18.168Z,98626.54
2023-03-14T14:32:49.150Z,98621.67
2023-03-14T14:35:36.009Z,98628.66
2023-03-14T14:38:14.087Z,98625.17
2023-03-14T14:40:48.269Z,98622.00
2023-03-14T14:43:24.295Z,98619.95
2023-03-14T14:45:55.715Z,98612.72
2023-03-14T14:48:28.692Z,98613.08
2023-03-14T14:51:05.012Z,98611.42
2023-03-14T14:53:41.289Z,98607.65
2023-03-14T14:56:23.416Z,98603.38
2023-03-14T14:59:02.726Z,98605.86
2023-03-14T15:01:40.635Z,98607.14
2023-03-14T15:04:15.988Z,98611.39
2023-03-14T15:06:49.521Z,98610.20
2023-03-14T15:09:18.746Z,98605.42
2023-03-14T15:11:48.514Z,98611.33
2023-03-14T15:14:17.418Z,98605.45
2023-03-14T15:16:46.783Z,98600.09
2023-03-14T15:19:24.787Z,98600.05
2023-03-14T15:21:54.618Z,98599.56
2023-03-14T15:24:24.341Z,98596.74
2023-03-14T15:26:53.226Z,98598.04
2023-03-14T15:29:22.047Z,98601.63
2023-03-14T15:31:50.924Z,98599.17
2023-03-14T15:34:19.670Z,98599.22
2023-03-14T15:36:48.415Z,98599.29
2023-03-14T15:39:17.223Z,98594.10
2023-03-14T15:41:46.003Z,98595.95
2023-03-14T15:44:14.735Z,98590.62
2023-03-14T15:46:43.463Z,98591.33
2023-03-14T15:49:12.146Z,98583.30
2023-03-14T15:51:40.876Z,98585.65
2023-03-14T15:54:09.636Z,98584.80
2023-03-14T15:56:40.406Z,98589.39
2023-03-14T15:59:09.372Z,98593.30
2023-03-14T16:01:38.193Z,98591.42
2023-03-14T16:04:07.377Z,98592.62
2023-03-14T16:06:37.388Z,98585.27
2023-03-14T16:09:06.406Z,98585.55
2023-03-14T16:11:35.196Z,98583.28
2023-03-14T16:14:04.259Z,98584.64
2023-03-14T16:16:33.652Z,98585.84
2023-03-14T16:19:03.071Z,98578.17
2023-03-14T16:21:33.705Z,98578.86
2023-03-14T16:24:03.361Z,98578.99
2023-03-14T16:26:35.068Z,98576.88
2023-03-14T16:29:03.938Z,98574.74
2023-03-14T16:31:33.529Z,98580.02
2023-03-14T16:34:04.071Z,98580.80
2023-03-14T16:36:32.788Z,98582.81
2023-03-14T16:39:01.559Z,98586.16
2023-03-14T16:41:31.660Z,98585.04
2023-03-14T16:44:01.946Z,98584.05
2023-03-14T16:46:30.902Z,98581.41
2023-03-14T16:49:00.046Z,98589.61
2023-03-14T16:51:28.988Z,98588.98
2023-03-14T16:53:57.793Z,98591.36
2023-03-14T16:56:26.558Z,98593.09
2023-03-14T16:58:55.284Z,98598.44
2023-03-14T17:01:24.101Z,98608.77
2023-03-14T17:03:53.424Z,98615.78
2023-03-14T17:06:25.428Z,98617.73
2023-03-14T17:08:56.131Z,98622.16
2023-03-14T17:11:25.110Z,98624.05
2023-03-14T17:13:56.851Z,98627.39
2023-03-14T17:16:26.301Z,98633.33
2023-03-14T17:18:55.167Z,98639.64
2023-03-14T17:21:24.930Z,98653.29
2023-03-14T17:23:54.006Z,98667.02
2023-03-14T17:26:22.761Z,98672.04
2023-03-14T17:28:51.941Z,98674.55
2023-03-14T17:31:22.834Z,98667.73
2023-03-14T17:33:55.297Z,98682.14
2023-03-14T17:36:28.836Z,98676.79
2023-03-14T17:38:58.603Z,98660.27
2023-03-14T17:41:27.462Z,98676.25
2023-03-14T17:43:57.398Z,98676.02
2023-03-14T17:46:27.234Z,98676.37
2023-03-14T17:48:56.100Z,98677.82
2023-03-14T17:51:24.879Z,98670.87
2023-03-14T17:53:53.554Z,98661.77
2023-03-14T17:56:22.306Z,98658.73
2023-03-14T17:58:52.353Z,98661.27
2023-03-14T18:01:50.174Z,98661.30
2023-03-14T18:04:20.424Z,98664.11
2023-03-14T18:06:49.286Z,98667.73
2023-03-14T18:09:18.081Z,98669.63
2023-03-14T18:11:47.190Z,98673.71
2023-03-14T18:14:17.044Z,98675.98
2023-03-14T18:16:48.776Z,98680.09
2023-03-14T18:19:26.114Z,98685.63
2023-03-14T18:21:54.938Z,98683.27
2023-03-14T18:24:38.161Z,98688.61
2023-03-14T18:27:06.908Z,98690.84
2023-03-14T18:29:36.859Z,98692.98
2023-03-14T18:32:05.845Z,98689.95
2023-03-14T18:34:35.155Z,98692.06
2023-03-14T18:37:03.872Z,98691.48
2023-03-14T18:39:32.930Z,98686.23
2023-03-14T18:42:01.675Z,98684.08
2023-03-14T18:44:30.981Z,98684.56
2023-03-14T18:46:59.753Z,98689.02
2023-03-14T18:49:28.667Z,98693.38
2023-03-14T18:51:57.401Z,98693.82
2023-03-14T18:54:26.193Z,98695.30
2023-03-14T18:56:55.812Z,98689.34
2023-03-14T18:59:24.558Z,98690.70
2023-03-14T19:01:54.230Z,98689.52
2023-03-14T19:04:23.022Z,98690.31
2023-03-14T19:06:58.973Z,98692.38
2023-03-14T19:09:56.474Z,98693.46
2023-03-14T19:12:29.190Z,98699.21
2023-03-14T19:14:57.861Z,98705.83
2023-03-14T19:17:26.610Z,98706.77
2023-03-14T19:19:56.866Z,98710.50
2023-03-14T19:22:25.643Z,98710.73
2023-03-14T19:24:55.934Z,98712.46
2023-03-14T19:27:24.950Z,98718.11
2023-03-14T19:29:53.718Z,98813.71
2023-03-14T19:32:22.488Z,98872.23
2023-03-14T19:34:51.207Z,98881.30
2023-03-14T19:37:19.852Z,98912.36
2023-03-14T19:39:48.695Z,98966.20
2023-03-14T19:42:18.047Z,98982.20
2023-03-14T19:44:46.783Z,98991.27
2023-03-14T19:47:15.495Z,99007.68
2023-03-14T19:49:44.337Z,99023.58
2023-03-14T19:52:13.120Z,99037.78
2023-03-14T19:54:42.466Z,99052.37
2023-03-14T19:57:11.206Z,99071.73
2023-03-14T19:59:39.898Z,99094.18
2023-03-14T20:02:14.370Z,99115.66
2023-03-14T20:04:44.374Z,99126.37
2023-03-14T20:07:13.939Z,99137.92
2023-03-14T20:09:42.743Z,99150.46
2023-03-14T20:12:11.606Z,99156.95
2023-03-14T20:14:41.291Z,99173.16
2023-03-14T20:17:20.090Z,99180.16
2023-03-14T20:19:53.210Z,99191.27
2023-03-14T20:22:22.407Z,99209.96
2023-03-14T20:24:52.576Z,99225.20
2023-03-14T20:27:21.722Z,99227.55
2023-03-14T20:29:50.752Z,99240.77
2023-03-14T20:32:20.404Z,99259.18
2023-03-14T20:34:49.425Z,99270.95
2023-03-14T20:37:18.105Z,99287.41
2023-03-14T20:39:46.911Z,99295.83
2023-03-14T20:42:17.562Z,99300.45
2023-03-14T20:44:46.344Z,99317.26
2023-03-14T20:47:15.025Z,99342.65
2023-03-14T20:49:43.726Z,99350.16
2023-03-14T20:52:12.984Z,99350.73
2023-03-14T20:54:41.722Z,99350.54
2023-03-14T20:57:11.044Z,99365.03
2023-03-14T20:59:39.772Z,99379.67
2023-03-14T21:04:57.990Z,99428.07
2023-03-14T21:07:27.030Z,99435.59
2023-03-14T21:09:55.715Z,99448.52
2023-03-14T21:12:24.461Z,99457.52
2023-03-14T21:14:53.268Z,99475.71
2023-03-14T21:17:21.979Z,99486.11
2023-03-14T21:19:58.288Z,99494.51
2023-03-14T21:22:29.446Z,99505.80
2023-03-14T21:24:58.128Z,99519.29
2023-03-14T21:27:26.858Z,99525.54
2023-03-14T21:29:56.853Z,99530.72
2023-03-14T21:32:26.167Z,99533.96
2023-03-14T21:34:54.858Z,99542.33
2023-03-14T21:37:27.417Z,99538.23
2023-03-14T21:39:56.212Z,99537.61
2023-03-14T21:42:25.459Z,99549.78
2023-03-14T21:44:54.102Z,99554.14
2023-03-14T21:47:23.652Z,99557.95
2023-03-14T21:49:53.851Z,99567.44
2023-03-14T21:52:22.570Z,99578.82
2023-03-14T21:54:51.344Z,99586.16
2023-03-14T21:57:20.298Z,99593.11
2023-03-14T21:59:49.060Z,99592.86
2023-03-14T22:02:19.462Z,99591.06
2023-03-14T22:04:48.458Z,99586.76
2023-03-14T22:07:18.891Z,99584.91
2023-03-14T22:09:49.391Z,99597.03
2023-03-14T22:12:19.687Z,99613.27
2023-03-14T22:14:49.009Z,99616.29
2023-03-14T22:17:20.388Z,99618.48
2023-03-14T22:19:49.234Z,99621.59
2023-03-14T22:22:17.904Z,99635.56
2023-03-14T22:24:46.632Z,99633.69
2023-03-14T22:27:15.549Z,99638.90
2023-03-14T22:29:44.466Z,99640.40
2023-03-14T22:32:13.463Z,99647.73
2023-03-14T22:34:42.162Z,99659.86
2023-03-14T22:37:12.675Z,99656.23
2023-03-14T22:39:41.519Z,99654.02
2023-03-14T22:42:10.318Z,99652.74
2023-03-14T22:44:38.967Z,99658.40
2023-03-14T22:47:07.744Z,99660.70
2023-03-14T22:49:36.508Z,99662.25
2023-03-14T22:52:05.397Z,99664.05
2023-03-14T22:54:34.266Z,99668.08
2023-03-14T22:57:03.054Z,99670.98
2023-03-14T22:59:31.767Z,99677.83
2023-03-14T23:02:00.514Z,99672.08
2023-03-14T23:04:29.206Z,99681.39
2023-03-14T23:06:57.860Z,99690.88
2023-03-14T23:09:26.584Z,99699.73
2023-03-14T23:11:55.320Z,99707.19
2023-03-14T23:14:24.124Z,99714.70
2023-03-14T23:16:55.912Z,99723.77
2023-03-14T23:19:29.077Z,99730.11
2023-03-14T23:21:57.726Z,99739.04
2023-03-14T23:24:26.511Z,99749.45
2023-03-14T23:26:55.267Z,99749.78
2023-03-14T23:29:23.928Z,99763.23
2023-03-14T23:31:52.624Z,99770.67
2023-03-14T23:34:21.629Z,99781.50
2023-03-14T23:36:50.293Z,99784.73
2023-03-14T23:39:19.039Z,99800.54
2023-03-14T23:41:47.689Z,99805.98
2023-03-14T23:44:16.602Z,99810.14
2023-03-14T23:46:45.209Z,99819.34
2023-03-14T23:49:14.494Z,99824.98
2023-03-14T23:51:43.219Z,99826.77
2023-03-14T23:54:11.885Z,99826.06
2023-03-14T23:56:41.311Z,99823.47
2023-03-14T23:59:09.959Z,99825.77
